Time;durP1;ratioP1;P1;durP2;ratioP2;P2;SDS_P1;SDS_P2;PMS_P1;PMS_P2;Temp;Humidity;BMP_temperature;BMP_pressure;BME280_temperature;BME280_humidity;BME280_pressure;Samples;Min_cycle;Max_cycle;Signal;HPM_P1;HPM_P2
2022/09/29 00:00:14;;;;;;;13.38;9.57;;;8.70;99.90;;;9.23;100.00;97853.19;5043996;27;129336;-78
2022/09/29 00:02:44;;;;;;;14.73;9.98;;;8.70;99.90;;;9.26;100.00;97851.72;5061632;27;129322;-77
2022/09/29 00:05:13;;;;;;;14.30;9.52;;;8.80;99.90;;;9.27;100.00;97853.28;5044377;27;119565;-77
2022/09/29 00:07:43;;;;;;;13.68;9.07;;;8.80;99.90;;;9.27;100.00;97851.38;5059367;27;119198;-76
2022/09/29 00:10:13;;;;;;;14.68;9.60;;;8.80;99.90;;;9.23;100.00;97850.47;5006130;27;129545;-77
2022/09/29 00:12:42;;;;;;;12.60;8.60;;;8.80;99.90;;;9.12;100.00;97862.91;5027091;27;128816;-79
2022/09/29 00:15:12;;;;;;;15.38;10.18;;;8.80;99.90;;;9.20;100.00;97851.16;5027231;27;119229;-79
2022/09/29 00:17:41;;;;;;;15.30;9.82;;;8.70;99.90;;;9.15;100.00;97846.00;5045283;27;119071;-76
2022/09/29 00:20:10;;;;;;;14.55;9.40;;;8.70;99.90;;;9.06;100.00;97856.16;5042251;27;130255;-79
2022/09/29 00:22:38;;;;;;;14.65;9.20;;;8.60;99.90;;;9.03;100.00;97854.13;5042267;27;130086;-78
2022/09/29 00:25:09;;;;;;;15.50;8.80;;;8.60;99.90;;;8.90;100.00;97856.09;5044177;27;119692;-78
2022/09/29 00:27:37;;;;;;;13.60;9.40;;;8.50;99.90;;;8.90;100.00;97850.66;5042720;27;119344;-78
2022/09/29 00:30:08;;;;;;;14.48;9.15;;;8.50;99.90;;;8.87;100.00;97852.13;5027038;27;129654;-78
2022/09/29 00:32:36;;;;;;;16.20;9.48;;;8.50;99.90;;;8.90;100.00;97856.84;5024373;27;129205;-77
2022/09/29 00:35:07;;;;;;;14.88;9.23;;;8.50;99.90;;;8.91;100.00;97863.84;5040961;27;122535;-78
2022/09/29 00:37:36;;;;;;;14.65;9.18;;;8.40;99.90;;;8.86;100.00;97855.94;5024440;27;121982;-78
2022/09/29 00:40:06;;;;;;;14.45;9.80;;;8.40;99.90;;;8.81;100.00;97864.31;5026487;27;129263;-78
2022/09/29 00:42:37;;;;;;;15.82;10.02;;;8.30;99.90;;;8.74;100.00;97858.66;5041821;27;129109;-78
2022/09/29 00:45:21;;;;;;;17.45;10.85;;;8.30;99.90;;;8.61;100.00;97868.69;5024242;27;120216;-79
2022/09/29 00:48:03;;;;;;;17.60;10.23;;;8.20;99.90;;;8.57;100.00;97860.50;5041966;27;119279;-78
2022/09/29 00:50:43;;;;;;;17.45;10.95;;;8.20;99.90;;;8.47;100.00;97871.75;5028115;27;130709;-78
2022/09/29 00:53:15;;;;;;;15.80;10.15;;;8.00;99.90;;;8.42;100.00;97880.03;5043653;27;128946;-77
2022/09/29 00:55:48;;;;;;;17.00;10.18;;;7.90;99.90;;;8.40;100.00;97882.31;5041669;27;119961;-77
2022/09/29 00:58:29;;;;;;;15.82;10.18;;;7.90;99.90;;;8.40;100.00;97879.59;5041824;27;119315;-77
2022/09/29 01:00:58;;;;;;;19.55;11.65;;;7.80;99.90;;;8.38;100.00;97877.22;5009465;27;129268;-78
2022/09/29 01:03:32;;;;;;;20.13;12.07;;;7.90;99.90;;;8.37;100.00;97877.56;5041491;27;129978;-78
2022/09/29 01:06:11;;;;;;;17.80;10.82;;;7.80;99.90;;;8.35;100.00;97874.41;5011765;27;102818;-78
2022/09/29 01:08:45;;;;;;;25.30;13.40;;;7.90;99.90;;;8.38;100.00;97873.72;5042302;27;119488;-77
2022/09/29 01:11:16;;;;;;;23.05;13.45;;;7.90;99.90;;;8.39;100.00;97883.41;5026066;27;129655;-78
2022/09/29 01:13:46;;;;;;;23.80;13.32;;;7.90;99.90;;;8.43;100.00;97882.44;5041343;27;129581;-79
2022/09/29 01:16:15;;;;;;;25.10;14.63;;;8.00;99.90;;;8.42;100.00;97885.44;5042100;27;120038;-77
2022/09/29 01:18:45;;;;;;;26.02;14.57;;;8.00;99.90;;;8.39;100.00;97880.72;5041771;27;119462;-78
2022/09/29 01:21:25;;;;;;;27.52;15.02;;;8.00;99.90;;;8.38;100.00;97892.66;5026101;27;128730;-79
2022/09/29 01:24:31;;;;;;;27.27;15.18;;;8.00;99.90;;;8.37;100.00;97888.38;5043773;27;129784;-75
2022/09/29 01:27:20;;;;;;;29.38;16.38;;;8.00;99.90;;;8.37;100.00;97882.97;5040249;27;122108;-76
2022/09/29 01:30:28;;;;;;;28.98;16.67;;;7.90;99.90;;;8.42;100.00;97888.16;5041675;27;122332;-76
2022/09/29 01:33:15;;;;;;;;;;;8.00;99.90;;;8.38;100.00;97884.53;5041492;27;129859;-76
2022/09/29 01:35:57;;;;;;;28.17;15.73;;;8.00;1.00;;;8.42;100.00;97880.03;5041146;27;129679;-76
2022/09/29 01:39:00;;;;;;;33.05;16.95;;;8.00;1.00;;;8.42;100.00;97885.44;5023900;27;119618;-77
2022/09/29 01:41:38;;;;;;;34.30;16.80;;;8.00;1.00;;;8.43;100.00;97881.59;5025188;27;119770;-76
2022/09/29 01:44:22;;;;;;;33.55;17.27;;;8.00;1.00;;;8.46;100.00;97886.38;5042603;27;129563;-77
2022/09/29 01:46:57;;;;;;;29.92;16.60;;;8.00;1.00;;;8.53;100.00;97897.44;5041059;27;130282;-78
2022/09/29 01:49:34;;;;;;;30.77;16.67;;;8.00;1.00;;;8.56;100.00;97894.06;5025607;27;118625;-77
2022/09/29 01:52:09;;;;;;;30.90;17.27;;;8.00;1.00;;;8.58;100.00;97902.59;5026245;27;119685;-78
2022/09/29 01:54:46;;;;;;;33.58;17.63;;;8.10;1.00;;;8.60;100.00;97907.69;5005130;27;130391;-78
2022/09/29 01:57:17;;;;;;;;;;;8.00;1.00;;;8.56;100.00;97891.34;5025856;27;128416;-78
2022/09/29 01:59:52;;;;;;;28.75;16.77;;;8.10;1.00;;;8.63;100.00;97897.00;5009616;27;119621;-78
2022/09/29 02:02:26;;;;;;;30.52;16.67;;;8.10;1.00;;;8.59;100.00;97895.31;5022949;27;119206;-77
2022/09/29 02:05:01;;;;;;;31.55;16.75;;;8.10;1.00;;;8.59;100.00;97893.38;5020844;28;131152;-77
2022/09/29 02:07:37;;;;;;;28.23;16.77;;;8.00;1.00;;;8.66;100.00;97883.91;5022350;28;128405;-80
2022/09/29 02:10:13;;;;;;;33.90;17.77;;;8.00;1.00;;;8.70;100.00;97890.25;5019091;28;119931;-79
2022/09/29 02:12:44;;;;;;;30.88;17.85;;;8.00;1.00;;;8.71;100.00;97891.78;5022495;28;118921;-77
2022/09/29 02:15:19;;;;;;;26.55;15.45;;;8.00;1.00;;;8.71;100.00;97886.38;5022029;28;129199;-77
2022/09/29 02:17:50;;;;;;;30.88;17.95;;;8.10;1.00;;;8.71;100.00;97870.16;5020394;28;129400;-77
2022/09/29 02:20:23;;;;;;;27.48;15.88;;;8.00;1.00;;;8.60;100.00;97872.53;5018925;28;122442;-76
2022/09/29 02:22:52;;;;;;;31.73;17.45;;;8.00;1.00;;;8.52;100.00;97887.72;5002738;28;121889;-77
2022/09/29 02:25:23;;;;;;;34.45;17.45;;;8.00;1.00;;;8.55;100.00;97878.94;5018702;28;130751;-78
2022/09/29 02:27:52;;;;;;;29.33;16.02;;;8.00;1.00;;;8.58;100.00;97867.44;5005434;28;129567;-77
2022/09/29 02:30:21;;;;;;;34.63;18.10;;;8.00;1.00;;;8.58;100.00;97864.75;5022040;28;119913;-80
2022/09/29 02:32:50;;;;;;;34.13;17.75;;;8.00;1.00;;;8.58;100.00;97872.88;5020187;27;119749;-77
2022/09/29 02:35:21;;;;;;;33.97;18.88;;;8.00;1.00;;;8.61;100.00;97877.59;5001799;28;129775;-77
2022/09/29 02:38:04;;;;;;;34.72;18.67;;;8.00;1.00;;;8.62;100.00;97890.00;5005477;28;129424;-78
2022/09/29 02:40:50;;;;;;;31.17;17.73;;;8.10;1.00;;;8.64;100.00;97882.31;5019252;28;119637;-77
2022/09/29 02:43:41;;;;;;;34.38;20.90;;;8.10;1.00;;;8.60;100.00;97886.03;5020271;28;119560;-76
2022/09/29 02:46:36;;;;;;;42.53;23.20;;;8.10;1.00;;;8.58;100.00;97877.50;5018902;28;129966;-78
2022/09/29 02:49:40;;;;;;;44.30;24.90;;;8.10;1.00;;;8.54;100.00;97887.38;4989825;28;129212;-78
2022/09/29 02:52:23;;;;;;;52.15;24.98;;;8.00;1.00;;;8.44;100.00;97883.22;5022664;28;119316;-76
2022/09/29 02:55:06;;;;;;;52.70;27.52;;;8.00;1.00;;;8.48;100.00;97875.22;5021744;28;119109;-77
2022/09/29 02:57:46;;;;;;;60.22;28.48;;;8.00;1.00;;;8.45;100.00;97879.41;5019690;28;129938;-79
2022/09/29 03:00:17;;;;;;;65.28;31.25;;;8.00;1.00;;;8.43;100.00;97887.00;5021409;28;128778;-78
2022/09/29 03:02:46;;;;;;;68.63;31.52;;;8.00;1.00;;;8.49;100.00;97893.03;5019934;28;119330;-77
2022/09/29 03:05:18;;;;;;;77.32;34.55;;;8.00;1.00;;;8.53;100.00;97902.84;5040117;27;119888;-79
2022/09/29 03:07:49;;;;;;;75.95;33.42;;;8.00;1.00;;;8.51;100.00;97896.97;5039667;27;129742;-82
2022/09/29 03:10:18;;;;;;;80.93;34.55;;;8.00;1.00;;;8.48;100.00;97900.34;5021827;27;131402;-79
2022/09/29 03:12:47;;;;;;;68.72;30.15;;;7.90;1.00;;;8.42;100.00;97890.84;5039500;27;121675;-79
2022/09/29 03:15:17;;;;;;;61.42;29.02;;;7.90;1.00;;;8.40;100.00;97876.91;5022689;27;121674;-78
2022/09/29 03:17:45;;;;;;;55.90;26.25;;;7.90;1.00;;;8.35;100.00;97875.19;5039475;27;129803;-79
2022/09/29 03:20:14;;;;;;;41.42;22.70;;;7.90;1.00;;;8.35;100.00;97877.09;5042957;27;128753;-78
2022/09/29 03:22:43;;;;;;;39.08;21.67;;;7.80;1.00;;;8.38;100.00;97885.34;5024976;27;119536;-77
2022/09/29 03:25:16;;;;;;;38.83;22.45;;;7.80;1.00;;;8.38;100.00;97887.25;5042369;27;119342;-77
2022/09/29 03:27:45;;;;;;;40.88;20.88;;;7.90;1.00;;;8.37;100.00;97882.97;5044060;27;130031;-80
2022/09/29 03:30:14;;;;;;;40.78;21.92;;;7.90;1.00;;;8.40;100.00;97877.69;5042004;27;129693;-80
2022/09/29 03:32:44;;;;;;;39.03;20.98;;;7.90;1.00;;;8.37;100.00;97872.16;5025139;27;119269;-79
2022/09/29 03:35:13;;;;;;;37.85;20.27;;;7.90;1.00;;;8.23;100.00;97878.66;5023799;27;120365;-80
2022/09/29 03:37:41;;;;;;;40.42;21.50;;;7.90;1.00;;;8.26;100.00;97883.41;5026306;27;130474;-81
2022/09/29 03:40:13;;;;;;;37.35;21.10;;;7.90;1.00;;;8.32;100.00;97875.06;5039172;27;129713;-78
2022/09/29 03:42:42;;;;;;;38.60;21.13;;;7.90;1.00;;;8.38;100.00;97881.84;5024388;27;119200;-79
2022/09/29 03:45:11;;;;;;;37.20;20.90;;;7.90;1.00;;;8.43;100.00;97892.41;5008465;27;119064;-78
2022/09/29 03:47:40;;;;;;;39.45;21.20;;;7.90;1.00;;;8.43;100.00;97873.50;5029716;27;129896;-78
2022/09/29 03:50:10;;;;;;;36.03;20.40;;;8.00;1.00;;;8.45;100.00;97885.59;5044816;27;131632;-80
2022/09/29 03:52:38;;;;;;;36.30;18.60;;;7.90;1.00;;;8.45;100.00;97874.00;5047539;27;119628;-73
2022/09/29 03:55:08;;;;;;;30.17;18.63;;;7.90;1.00;;;8.41;100.00;97883.88;5063451;27;119194;-72
2022/09/29 03:57:38;;;;;;;34.88;19.73;;;7.90;1.00;;;8.39;100.00;97892.31;5046972;27;128389;-71
2022/09/29 04:00:08;;;;;;;34.55;19.40;;;7.90;1.00;;;8.35;100.00;97890.63;5062438;27;130759;-72
2022/09/29 04:02:38;;;;;;;27.48;17.77;;;7.90;1.00;;;8.34;100.00;97889.06;5061251;27;122747;-73
2022/09/29 04:05:11;;;;;;;30.45;18.52;;;7.90;1.00;;;8.30;100.00;97893.53;5065647;27;121902;-79
2022/09/29 04:07:40;;;;;;;31.35;18.73;;;7.90;1.00;;;8.33;100.00;97900.97;5062326;27;129974;-75
2022/09/29 04:10:09;;;;;;;31.10;18.10;;;7.90;1.00;;;8.33;100.00;97903.69;5030772;27;129243;-72
2022/09/29 04:12:40;;;;;;;27.42;17.25;;;7.90;1.00;;;8.37;100.00;97910.78;5062571;27;119893;-72
2022/09/29 04:15:09;;;;;;;25.50;15.57;;;7.90;1.00;;;8.40;100.00;97912.81;5047877;27;118536;-73
2022/09/29 04:17:38;;;;;;;26.10;15.93;;;8.00;1.00;;;8.39;100.00;97907.75;5065592;27;129298;-72
2022/09/29 04:20:08;;;;;;;23.75;15.02;;;7.90;1.00;;;8.40;100.00;97893.13;5047783;27;129119;-72
2022/09/29 04:22:37;;;;;;;24.33;15.07;;;7.90;1.00;;;8.34;100.00;97889.06;5062750;27;119908;-75
2022/09/29 04:25:07;;;;;;;23.60;15.27;;;7.90;1.00;;;8.32;100.00;97866.97;5065138;27;118631;-76
2022/09/29 04:27:36;;;;;;;24.48;15.23;;;7.90;1.00;;;8.35;100.00;97880.59;5045588;27;129745;-78
2022/09/29 04:30:11;;;;;;;22.77;14.70;;;7.90;1.00;;;8.42;100.00;97869.22;5062025;27;129538;-70
2022/09/29 04:32:39;;;;;;;23.17;14.52;;;7.90;1.00;;;8.39;100.00;97867.19;5066012;27;119209;-73
2022/09/29 04:35:09;;;;;;;24.58;15.55;;;7.90;1.00;;;8.44;100.00;97869.72;5064552;27;118613;-71
2022/09/29 04:37:37;;;;;;;23.23;15.25;;;7.90;1.00;;;8.45;100.00;97874.00;5030331;27;129944;-71
2022/09/29 04:40:07;;;;;;;24.95;15.05;;;7.90;1.00;;;8.43;100.00;97860.81;5060930;27;130319;-75
2022/09/29 04:42:36;;;;;;;21.65;14.98;;;7.90;1.00;;;8.39;100.00;97875.31;5060955;27;120801;-77
2022/09/29 04:45:07;;;;;;;25.08;13.85;;;7.80;1.00;;;8.26;100.00;97864.47;5047388;27;119754;-71
2022/09/29 04:47:35;;;;;;;17.63;12.80;;;7.70;1.00;;;8.21;100.00;97859.31;5047096;27;130418;-72
2022/09/29 04:50:04;;;;;;;20.80;13.98;;;7.70;1.00;;;8.23;100.00;97857.03;5062034;27;129527;-74
2022/09/29 04:52:33;;;;;;;19.65;13.35;;;7.70;1.00;;;8.22;100.00;97860.09;5061150;27;122302;-77
2022/09/29 04:55:02;;;;;;;21.65;15.30;;;7.70;1.00;;;8.23;100.00;97857.03;5062625;27;121517;-76
2022/09/29 04:57:30;;;;;;;20.20;14.15;;;7.70;1.00;;;8.18;100.00;97849.16;5064246;27;130163;-79
2022/09/29 04:59:59;;;;;;;22.67;14.55;;;7.70;1.00;;;8.19;100.00;97863.47;5063246;27;129462;-77
2022/09/29 05:02:28;;;;;;;25.13;17.17;;;7.60;1.00;;;8.10;100.00;97866.25;5059652;27;119374;-76
2022/09/29 05:04:57;;;;;;;22.73;15.88;;;7.60;1.00;;;8.15;100.00;97855.25;5044062;27;119759;-72
2022/09/29 05:07:25;;;;;;;26.17;17.50;;;7.70;1.00;;;8.15;100.00;97849.03;5040370;27;129977;-78
2022/09/29 05:09:54;;;;;;;27.30;17.73;;;7.70;1.00;;;8.19;100.00;97861.53;5026356;27;129740;-78
2022/09/29 05:12:22;;;;;;;23.50;17.50;;;7.70;1.00;;;8.17;100.00;97852.97;5041779;27;119457;-78
2022/09/29 05:14:51;;;;;;;22.45;16.92;;;7.70;1.00;;;8.23;100.00;97867.84;5041721;27;119605;-79
2022/09/29 05:17:19;;;;;;;20.25;16.05;;;7.70;1.00;;;8.36;100.00;97870.56;5025325;27;129272;-78
2022/09/29 05:19:49;;;;;;;21.13;15.98;;;7.80;1.00;;;8.53;100.00;97878.50;5026360;27;128941;-79
2022/09/29 05:22:23;;;;;;;23.17;16.85;;;7.90;1.00;;;8.64;100.00;97876.91;5041319;27;119758;-78
2022/09/29 05:24:52;;;;;;;20.27;15.63;;;7.90;1.00;;;8.79;100.00;97888.22;5041739;27;120258;-79
2022/09/29 05:27:21;;;;;;;18.38;13.73;;;8.10;99.90;;;8.80;100.00;97896.00;5023396;27;130007;-79
2022/09/29 05:29:50;;;;;;;17.38;12.15;;;8.10;99.90;;;8.87;100.00;97884.59;5026095;27;129288;-77
2022/09/29 05:32:18;;;;;;;17.25;12.45;;;8.10;99.90;;;8.99;100.00;97890.00;5039927;27;119524;-79
2022/09/29 05:34:49;;;;;;;17.65;12.32;;;8.20;99.90;;;8.99;100.00;97898.13;5026613;27;118457;-75
2022/09/29 05:37:18;;;;;;;15.63;11.30;;;8.20;99.90;;;9.05;100.00;97911.41;5040999;27;130689;-79
2022/09/29 05:39:46;;;;;;;16.25;10.88;;;8.20;99.90;;;9.03;100.00;97924.50;5042734;27;129519;-78
2022/09/29 05:42:15;;;;;;;14.27;9.70;;;8.20;99.90;;;9.04;100.00;97918.75;5061655;27;121873;-78
2022/09/29 05:44:43;;;;;;;13.75;10.05;;;8.20;99.90;;;8.96;100.00;97925.84;5061486;27;122598;-74
2022/09/29 05:47:11;;;;;;;13.30;9.55;;;8.20;99.90;;;8.99;100.00;97913.53;5051845;27;130358;-77
2022/09/29 05:49:41;;;;;;;13.98;9.70;;;8.20;99.90;;;8.95;100.00;97910.72;5057595;27;129882;-75
2022/09/29 05:52:11;;;;;;;11.82;8.77;;;8.00;99.90;;;8.92;100.00;97911.41;5044118;27;120186;-80
2022/09/29 05:54:39;;;;;;;12.40;9.07;;;8.20;99.90;;;9.01;100.00;97905.88;5026994;27;118181;-78
2022/09/29 05:57:08;;;;;;;12.75;9.45;;;8.20;99.90;;;8.94;100.00;97900.25;5041770;27;130200;-78
2022/09/29 05:59:36;;;;;;;12.85;9.73;;;8.20;99.90;;;8.92;100.00;97903.28;5028329;27;128710;-77
2022/09/29 06:02:05;;;;;;;13.73;10.23;;;8.20;99.90;;;9.00;100.00;97909.72;5047499;27;118438;-78
2022/09/29 06:04:34;;;;;;;12.18;9.35;;;8.20;99.90;;;8.99;100.00;97917.06;5064546;27;118500;-79
2022/09/29 06:07:03;;;;;;;12.82;10.18;;;8.20;99.90;;;9.04;100.00;97915.22;5058534;27;129859;-77
2022/09/29 06:09:34;;;;;;;15.13;9.60;;;8.30;99.90;;;9.02;100.00;97922.91;5059571;27;129253;-78
2022/09/29 06:12:04;;;;;;;12.52;9.93;;;8.30;99.90;;;9.07;100.00;97917.25;5045253;27;118893;-78
2022/09/29 06:14:32;;;;;;;15.50;9.20;;;8.30;99.90;;;9.05;100.00;97922.22;5046997;27;118858;-79
2022/09/29 06:17:01;;;;;;;12.98;9.93;;;8.30;99.90;;;9.10;100.00;97913.88;5060420;27;130061;-78
2022/09/29 06:19:29;;;;;;;12.80;9.40;;;8.40;99.90;;;8.99;100.00;97919.75;5061870;27;129500;-81
2022/09/29 06:21:58;;;;;;;11.90;9.20;;;8.30;99.90;;;9.09;100.00;97915.00;5061957;27;119725;-80
2022/09/29 06:24:26;;;;;;;13.77;9.60;;;8.30;99.90;;;9.11;100.00;97920.88;5062275;27;119842;-79
2022/09/29 06:26:57;;;;;;;12.93;9.57;;;8.40;99.90;;;9.14;100.00;97925.59;5061186;27;128982;-77
2022/09/29 06:29:25;;;;;;;13.95;9.65;;;8.40;99.90;;;9.24;100.00;97924.34;5046869;27;128558;-79
2022/09/29 06:31:54;;;;;;;11.65;9.60;;;8.50;99.90;;;9.46;100.00;97914.97;5046937;27;121039;-76
2022/09/29 06:34:23;;;;;;;13.38;9.13;;;8.60;99.90;;;9.66;100.00;97924.81;5048899;27;121128;-79
2022/09/29 06:39:39;;;;;;;11.85;8.25;;;8.90;99.90;;;10.02;100.00;97925.81;5058799;27;129633;-77
2022/09/29 06:42:08;;;;;;;12.75;7.97;;;9.10;99.90;;;9.82;100.00;97938.41;5053119;27;119611;-77
2022/09/29 06:44:37;;;;;;;11.35;8.38;;;9.00;99.90;;;9.87;100.00;97935.47;5062541;27;119404;-79
2022/09/29 06:47:05;;;;;;;11.18;8.38;;;9.00;99.90;;;9.92;100.00;97920.88;5063883;27;130519;-78
2022/09/29 06:49:34;;;;;;;9.57;7.43;;;9.10;99.90;;;9.98;100.00;97924.91;5046232;27;128993;-81
2022/09/29 06:52:03;;;;;;;12.65;8.23;;;9.10;99.90;;;10.03;100.00;97926.59;5065715;27;119912;-80
2022/09/29 06:54:31;;;;;;;15.02;8.50;;;9.10;99.90;;;9.96;100.00;97937.25;5064106;27;119595;-81
2022/09/29 06:57:00;;;;;;;10.52;8.05;;;9.10;99.90;;;10.03;100.00;97927.38;5060700;27;129711;-80
2022/09/29 06:59:31;;;;;;;12.07;8.88;;;9.10;99.90;;;10.05;100.00;97930.53;5061627;27;130028;-77
2022/09/29 07:02:00;;;;;;;12.98;8.20;;;9.20;99.90;;;10.22;100.00;97934.06;5064851;27;119663;-79
2022/09/29 07:04:28;;;;;;;12.25;8.40;;;9.30;99.90;;;10.30;100.00;97935.03;5063667;27;119968;-79
2022/09/29 07:06:58;;;;;;;12.77;9.27;;;9.30;99.90;;;10.36;100.00;97939.91;5060479;27;130146;-80
2022/09/29 07:09:26;;;;;;;12.05;8.23;;;9.30;99.90;;;10.48;100.00;97938.25;5060655;27;129850;-79
2022/09/29 07:11:56;;;;;;;15.05;8.75;;;9.40;99.90;;;10.42;100.00;97935.81;5062439;27;119352;-78
2022/09/29 07:14:25;;;;;;;11.57;8.10;;;9.30;99.90;;;10.32;100.00;97949.06;5062076;27;119951;-79
2022/09/29 07:16:55;;;;;;;11.65;7.57;;;9.30;99.90;;;10.22;100.00;97956.56;5047447;27;129378;-77
2022/09/29 07:19:23;;;;;;;10.57;7.65;;;9.20;99.90;;;10.22;100.00;97966.59;5081544;27;129998;-81
2022/09/29 07:21:52;;;;;;;10.52;7.95;;;9.20;99.90;;;10.21;100.00;97965.03;5083994;27;121722;-79
2022/09/29 07:24:23;;;;;;;12.45;7.93;;;9.20;99.90;;;10.24;100.00;97964.34;5045171;27;121642;-78
2022/09/29 07:26:52;;;;;;;12.57;7.97;;;9.30;99.90;;;10.25;100.00;97976.75;5028644;27;130157;-80
2022/09/29 07:29:21;;;;;;;10.43;7.50;;;9.30;99.90;;;10.08;100.00;97989.47;5052523;27;129788;-78
2022/09/29 07:31:51;;;;;;;14.25;7.85;;;9.20;99.90;;;10.06;100.00;97990.94;5077308;27;120142;-78
2022/09/29 07:34:22;;;;;;;13.63;8.95;;;9.20;99.90;;;9.92;100.00;97991.31;5069153;27;119970;-73
2022/09/29 07:36:51;;;;;;;13.48;8.77;;;9.10;99.90;;;9.96;100.00;97994.94;5044932;27;130551;-78
2022/09/29 07:39:22;;;;;;;12.23;8.45;;;9.10;99.90;;;10.03;100.00;97995.13;5056164;27;129315;-78
2022/09/29 07:41:53;;;;;;;11.40;7.97;;;9.20;99.90;;;10.19;100.00;97986.25;5071292;27;119782;-80
2022/09/29 07:44:22;;;;;;;10.23;7.53;;;9.30;99.90;;;10.42;100.00;97981.09;5052653;27;118102;-77
2022/09/29 07:46:51;;;;;;;10.90;7.88;;;9.50;99.90;;;10.67;100.00;97984.44;5046388;27;129593;-79
2022/09/29 07:49:22;;;;;;;11.02;7.63;;;9.70;99.90;;;10.81;100.00;97994.09;5046077;27;131367;-79
2022/09/29 07:51:51;;;;;;;12.48;8.30;;;9.90;99.90;;;10.88;100.00;97988.84;5073967;27;120031;-82
2022/09/29 07:54:19;;;;;;;13.05;8.20;;;9.90;99.90;;;11.13;100.00;97998.38;5047821;27;119078;-79
2022/09/29 07:56:48;;;;;;;12.32;8.10;;;10.00;99.90;;;11.28;100.00;97996.81;5064739;27;129649;-79
2022/09/29 07:59:16;;;;;;;10.60;7.55;;;10.20;99.90;;;11.27;100.00;97997.94;5048923;27;129673;-77
2022/09/29 08:01:45;;;;;;;13.85;7.28;;;10.20;99.90;;;11.25;100.00;97999.41;5064368;27;119349;-80
2022/09/29 08:04:14;;;;;;;11.32;7.70;;;10.00;99.90;;;11.54;100.00;97991.94;5011405;27;119374;-79
2022/09/29 08:06:45;;;;;;;10.85;7.20;;;10.20;99.90;;;11.77;100.00;98000.97;5054278;27;129825;-80
2022/09/29 08:09:13;;;;;;;9.52;6.47;;;10.50;99.90;;;11.92;100.00;97990.41;5033527;27;129919;-80
2022/09/29 08:11:43;;;;;;;9.52;7.63;;;10.60;99.90;;;12.03;100.00;97977.84;5043692;27;123143;-82
2022/09/29 08:14:13;;;;;;;11.40;7.18;;;10.70;99.90;;;12.11;100.00;97990.44;5061147;27;121728;-79
2022/09/29 08:16:41;;;;;;;11.38;7.30;;;10.80;99.90;;;12.30;100.00;97989.63;5027863;27;130283;-80
2022/09/29 08:19:10;;;;;;;10.48;7.50;;;10.90;99.90;;;12.47;99.52;97991.13;5058843;27;130745;-80
2022/09/29 08:21:39;;;;;;;10.10;6.90;;;11.10;99.90;;;12.47;97.96;97980.25;5048338;27;120134;-78
2022/09/29 08:24:09;;;;;;;11.27;7.60;;;11.00;99.90;;;12.46;98.55;97978.66;5059536;27;119993;-78
2022/09/29 08:26:40;;;;;;;10.63;7.90;;;11.00;99.90;;;12.37;99.20;97976.19;5032452;27;129838;-80
2022/09/29 08:29:08;;;;;;;10.38;6.78;;;10.90;99.90;;;12.38;99.64;97976.97;5050344;27;130020;-80
2022/09/29 08:31:37;;;;;;;10.05;7.13;;;11.00;99.90;;;12.33;99.80;97966.38;5050933;27;119734;-81
2022/09/29 08:34:07;;;;;;;9.32;7.00;;;10.90;99.90;;;12.22;100.00;97971.63;5029663;27;118208;-81
2022/09/29 08:36:36;;;;;;;9.55;7.43;;;10.90;99.90;;;12.20;100.00;97965.72;5045948;27;130702;-79
2022/09/29 08:39:05;;;;;;;10.13;7.38;;;10.80;99.90;;;11.92;100.00;97976.81;5052459;27;129216;-79
2022/09/29 08:41:52;;;;;;;10.43;7.13;;;10.70;99.90;;;11.93;100.00;97983.84;5044539;27;119717;-78
2022/09/29 08:44:27;;;;;;;;;;;10.70;99.90;;;11.55;100.00;97975.28;5043721;27;120061;-79
2022/09/29 08:47:01;;;;;;;10.05;6.53;;;10.60;99.90;;;11.67;100.00;97982.50;5044459;27;130372;-78
2022/09/29 08:49:37;;;;;;;8.75;6.60;;;10.60;99.90;;;11.77;100.00;97990.09;5044085;27;129781;-78
2022/09/29 08:52:13;;;;;;;9.93;7.00;;;10.70;99.90;;;11.83;100.00;97996.84;5031452;27;117973;-79
2022/09/29 08:54:45;;;;;;;9.25;6.20;;;10.70;99.90;;;11.89;100.00;97983.75;5049593;27;119708;-78
2022/09/29 08:57:18;;;;;;;9.40;7.10;;;10.70;99.90;;;11.77;100.00;97992.81;5042473;27;130714;-78
2022/09/29 08:59:54;;;;;;;10.27;7.20;;;10.70;99.90;;;11.79;100.00;97990.53;5044332;27;129751;-78
2022/09/29 09:03:03;;;;;;;9.23;7.05;;;10.70;99.90;;;11.86;100.00;98003.50;5042921;27;122019;-80
2022/09/29 09:06:08;;;;;;;10.27;7.35;;;10.80;99.90;;;11.75;100.00;98008.72;5047603;27;122503;-78
2022/09/29 09:08:56;;;;;;;14.65;7.80;;;10.70;99.90;;;11.78;100.00;98013.44;5044530;27;130035;-80
2022/09/29 09:11:50;;;;;;;10.32;7.82;;;10.60;99.90;;;11.71;100.00;98021.41;5045076;27;129501;-77
2022/09/29 09:14:40;;;;;;;11.73;7.68;;;10.60;99.90;;;11.74;100.00;98020.72;5045311;27;120348;-79
2022/09/29 09:17:24;;;;;;;12.48;7.65;;;10.60;99.90;;;11.79;100.00;98023.13;5053558;27;119882;-81
2022/09/29 09:20:18;;;;;;;10.10;7.75;;;10.70;99.90;;;11.73;100.00;98024.56;5027826;27;129224;-81
2022/09/29 09:22:56;;;;;;;11.38;8.13;;;10.70;99.90;;;11.64;100.00;98021.25;5044603;27;129558;-76
2022/09/29 09:25:31;;;;;;;9.95;7.82;;;10.60;99.90;;;11.54;100.00;98033.47;5028227;27;119107;-76
2022/09/29 09:28:14;;;;;;;10.70;7.75;;;10.60;99.90;;;11.56;100.00;98024.97;5043690;27;119518;-77
2022/09/29 09:30:54;;;;;;;11.52;8.18;;;10.60;99.90;;;11.59;100.00;98043.28;5042107;27;130517;-77
2022/09/29 09:33:30;;;;;;;11.25;8.68;;;10.60;99.90;;;11.52;100.00;98052.84;5030369;27;129349;-76
2022/09/29 09:36:02;;;;;;;;;;;10.50;99.90;;;11.43;100.00;98059.59;5044676;27;119407;-77
2022/09/29 09:38:46;;;;;;;10.48;8.20;;;10.50;99.90;;;11.38;100.00;98060.66;5026272;27;118350;-76
2022/09/29 09:41:17;;;;;;;13.50;8.90;;;10.50;99.90;;;11.32;100.00;98065.56;5041132;27;130005;-78
2022/09/29 09:43:51;;;;;;;16.00;9.15;;;10.40;99.90;;;11.36;100.00;98064.84;5021676;27;130173;-80
2022/09/29 09:46:26;;;;;;;12.70;8.73;;;10.50;99.90;;;11.48;100.00;98062.84;5042742;27;118796;-77
2022/09/29 09:49:05;;;;;;;12.43;9.38;;;10.60;99.90;;;11.45;100.00;98060.84;5009558;27;118474;-77
2022/09/29 09:51:44;;;;;;;12.15;8.73;;;10.60;99.90;;;11.38;100.00;98051.72;5040419;27;130198;-77
2022/09/29 09:54:20;;;;;;;13.45;8.95;;;10.50;99.90;;;11.37;100.00;98059.06;5034046;27;128334;-77
2022/09/29 09:57:24;;;;;;;12.45;9.35;;;10.50;99.90;;;11.35;100.00;98064.06;5061771;27;121742;-77
2022/09/29 10:00:10;;;;;;;10.75;8.70;;;10.50;99.90;;;11.37;100.00;98067.22;5061039;27;122274;-77
2022/09/29 10:02:46;;;;;;;12.73;8.73;;;10.50;99.90;;;11.38;100.00;98074.22;5028625;27;130229;-76
2022/09/29 10:05:18;;;;;;;12.35;9.15;;;10.50;99.90;;;11.51;100.00;98078.44;5025541;27;129189;-79
2022/09/29 10:07:48;;;;;;;12.95;9.20;;;10.60;99.90;;;11.47;100.00;98072.13;5045134;27;118992;-80
2022/09/29 10:10:20;;;;;;;14.05;9.60;;;10.60;99.90;;;11.49;100.00;98067.13;5060751;27;119694;-79
2022/09/29 10:12:58;;;;;;;13.57;10.00;;;10.60;99.90;;;11.58;100.00;98082.47;5060280;27;129779;-79
2022/09/29 10:15:33;;;;;;;13.77;9.35;;;10.70;99.90;;;11.66;100.00;98073.34;5045434;27;130049;-77
2022/09/29 10:18:12;;;;;;;11.43;8.57;;;10.70;99.90;;;11.64;100.00;98081.03;5028160;27;119492;-76
2022/09/29 10:20:41;;;;;;;11.70;8.60;;;10.70;99.90;;;11.63;100.00;98077.53;5063601;27;121377;-77
2022/09/29 10:23:31;;;;;;;11.52;9.27;;;10.70;99.90;;;11.58;100.00;98082.47;5040355;27;130195;-77
2022/09/29 10:26:08;;;;;;;14.40;8.55;;;10.70;99.90;;;11.66;100.00;98078.78;5059457;27;129540;-77
2022/09/29 10:28:48;;;;;;;13.15;8.88;;;10.70;99.90;;;11.73;100.00;98084.34;5063551;27;119102;-76
2022/09/29 10:31:24;;;;;;;10.70;8.27;;;10.70;99.90;;;11.67;100.00;98074.88;5026363;27;119791;-78
2022/09/29 10:33:58;;;;;;;10.85;7.90;;;10.70;99.90;;;11.80;100.00;98089.97;5045805;27;130075;-76
2022/09/29 10:36:31;;;;;;;10.98;8.25;;;10.80;99.90;;;11.78;100.00;98089.53;5060289;27;129652;-76